createdAt,value
2024-02-15T00:00:16.362Z,42.19
2024-02-15T00:01:16.357Z,42.20
2024-02-15T00:02:16.317Z,42.19
2024-02-15T00:03:16.369Z,42.19
2024-02-15T00:04:16.335Z,42.19
2024-02-15T00:05:16.308Z,42.17
2024-02-15T00:06:16.388Z,42.19
2024-02-15T00:07:16.383Z,42.16
2024-02-15T00:08:16.409Z,42.19
2024-02-15T00:09:16.374Z,42.18
2024-02-15T00:10:16.346Z,42.19
2024-02-15T00:11:16.393Z,42.20
2024-02-15T00:12:16.505Z,42.20
2024-02-15T00:13:16.511Z,42.19
2024-02-15T00:14:16.649Z,42.19
2024-02-15T00:15:16.645Z,42.19
2024-02-15T00:16:16.692Z,42.19
2024-02-15T00:17:16.731Z,42.20
2024-02-15T00:18:16.929Z,42.19
2024-02-15T00:19:17.098Z,42.20
2024-02-15T00:20:16.914Z,42.20
2024-02-15T00:21:17.021Z,42.20
2024-02-15T00:22:17.016Z,42.19
2024-02-15T00:23:17.062Z,42.21
2024-02-15T00:24:17.134Z,42.21
2024-02-15T00:25:17.172Z,42.22
2024-02-15T00:26:17.232Z,42.21
2024-02-15T00:27:17.336Z,42.19
2024-02-15T00:28:17.326Z,42.21
2024-02-15T00:29:17.373Z,42.20
2024-02-15T00:30:17.468Z,42.21
2024-02-15T00:31:17.489Z,42.20
2024-02-15T00:32:17.570Z,42.21
2024-02-15T00:33:17.856Z,42.18
2024-02-15T00:34:18.063Z,42.20
2024-02-15T00:35:17.803Z,42.21
2024-02-15T00:36:17.822Z,42.21
2024-02-15T00:37:17.835Z,42.21
2024-02-15T00:38:17.904Z,42.22
2024-02-15T00:39:18.000Z,42.20
2024-02-15T00:40:18.009Z,42.23
2024-02-15T00:41:18.054Z,42.21
2024-02-15T00:42:18.178Z,42.24
2024-02-15T00:43:18.172Z,42.21
2024-02-15T00:44:18.222Z,42.21
2024-02-15T00:45:18.397Z,42.19
2024-02-15T00:46:18.342Z,42.21
2024-02-15T00:47:18.393Z,42.20
2024-02-15T00:48:18.576Z,42.20
2024-02-15T00:49:18.675Z,42.21
2024-02-15T00:50:18.670Z,42.24
2024-02-15T00:51:18.668Z,42.23
2024-02-15T00:52:18.710Z,42.21
2024-02-15T00:53:18.760Z,42.22
2024-02-15T00:54:18.836Z,42.22
2024-02-15T00:55:18.871Z,42.23
2024-02-15T00:56:18.943Z,42.23
2024-02-15T00:57:19.024Z,42.25
2024-02-15T00:58:19.057Z,42.25
2024-02-15T00:59:19.117Z,42.24
2024-02-15T01:00:19.224Z,42.23
2024-02-15T01:01:19.276Z,42.23
2024-02-15T01:02:19.285Z,42.23
2024-02-15T01:03:19.351Z,42.24
2024-02-15T01:04:19.407Z,42.24
2024-02-15T01:05:19.449Z,42.25
2024-02-15T01:06:19.597Z,42.24
2024-02-15T01:07:19.565Z,42.24
2024-02-15T01:08:19.624Z,42.23
2024-02-15T01:09:19.686Z,42.24
2024-02-15T01:10:19.751Z,42.25
2024-02-15T01:11:19.769Z,42.24
2024-02-15T01:12:19.840Z,42.24
2024-02-15T01:13:19.890Z,42.24
2024-02-15T01:14:19.956Z,42.27
2024-02-15T01:15:20.024Z,42.26
2024-02-15T01:16:20.084Z,42.21
2024-02-15T01:17:20.163Z,42.26
2024-02-15T01:18:20.274Z,42.23
2024-02-15T01:19:20.282Z,42.25
2024-02-15T01:20:20.320Z,42.26
2024-02-15T01:21:20.362Z,42.27
2024-02-15T01:22:20.429Z,42.27
2024-02-15T01:23:20.507Z,42.25
2024-02-15T01:24:20.536Z,42.24
2024-02-15T01:25:20.586Z,42.25
2024-02-15T01:26:20.653Z,42.25
2024-02-15T01:27:20.693Z,42.25
2024-02-15T01:28:20.771Z,42.26
2024-02-15T01:29:20.812Z,42.25
2024-02-15T01:30:20.901Z,42.24
2024-02-15T01:31:20.928Z,42.23
2024-02-15T01:32:21.000Z,42.25
2024-02-15T01:33:21.201Z,42.25
2024-02-15T01:34:21.225Z,42.24
2024-02-15T01:35:21.161Z,42.26
2024-02-15T01:36:21.234Z,42.25
2024-02-15T01:37:21.275Z,42.26
2024-02-15T01:38:21.334Z,42.27
2024-02-15T01:39:21.391Z,42.27
2024-02-15T01:40:21.460Z,42.25
2024-02-15T01:41:21.502Z,42.27
2024-02-15T01:42:21.591Z,42.26
2024-02-15T01:43:21.621Z,42.27
2024-02-15T01:44:21.859Z,42.27
2024-02-15T01:45:21.750Z,42.26
2024-02-15T01:46:21.810Z,42.25
2024-02-15T01:47:21.929Z,42.26
2024-02-15T01:48:22.181Z,42.27
2024-02-15T01:49:22.015Z,42.27
2024-02-15T01:50:22.024Z,42.25
2024-02-15T01:51:22.065Z,42.27
2024-02-15T01:52:22.126Z,42.24
2024-02-15T01:53:22.185Z,42.26
2024-02-15T01:54:22.269Z,42.27
2024-02-15T01:55:22.290Z,42.26
2024-02-15T01:56:22.347Z,42.27
2024-02-15T01:57:22.407Z,42.26
2024-02-15T01:58:22.466Z,42.28
2024-02-15T01:59:22.519Z,42.26
2024-02-15T02:00:22.594Z,42.28
2024-02-15T02:01:22.642Z,42.26
2024-02-15T02:02:22.701Z,42.27
2024-02-15T02:03:22.867Z,42.25
2024-02-15T02:04:22.828Z,42.28
2024-02-15T02:05:22.884Z,42.25
2024-02-15T02:06:22.931Z,42.28
2024-02-15T02:07:23.021Z,42.25
2024-02-15T02:08:23.057Z,42.28
2024-02-15T02:09:23.103Z,42.27
2024-02-15T02:10:23.165Z,42.25
2024-02-15T02:11:23.226Z,42.30
2024-02-15T02:12:23.277Z,42.28
2024-02-15T02:13:23.344Z,42.27
2024-02-15T02:14:23.389Z,42.25
2024-02-15T02:15:23.446Z,42.26
2024-02-15T02:16:23.509Z,42.26
2024-02-15T02:17:23.565Z,42.27
2024-02-15T02:18:23.687Z,42.28
2024-02-15T02:19:23.796Z,42.28
2024-02-15T02:20:23.798Z,42.27
2024-02-15T02:21:23.812Z,42.27
2024-02-15T02:22:23.866Z,42.26
2024-02-15T02:23:23.940Z,42.28
2024-02-15T02:24:23.962Z,42.28
2024-02-15T02:25:24.103Z,42.26
2024-02-15T02:26:24.101Z,42.28
2024-02-15T02:27:24.152Z,42.27
2024-02-15T02:28:24.214Z,42.28
2024-02-15T02:29:24.260Z,42.27
2024-02-15T02:30:24.332Z,42.27
2024-02-15T02:31:24.374Z,42.27
2024-02-15T02:32:24.467Z,42.27
2024-02-15T02:33:24.719Z,42.28
2024-02-15T02:34:24.606Z,42.28
2024-02-15T02:35:24.617Z,42.28
2024-02-15T02:36:24.672Z,42.26
2024-02-15T02:37:24.732Z,42.27
2024-02-15T02:38:24.769Z,42.27
2024-02-15T02:39:24.879Z,42.28
2024-02-15T02:40:24.905Z,42.29
2024-02-15T02:41:24.985Z,42.27
2024-02-15T02:42:25.036Z,42.28
2024-02-15T02:43:25.100Z,42.28
2024-02-15T02:44:25.153Z,42.26
2024-02-15T02:45:25.224Z,42.28
2024-02-15T02:46:25.289Z,42.29
2024-02-15T02:47:25.394Z,42.29
2024-02-15T02:48:25.480Z,42.29
2024-02-15T02:49:25.520Z,42.27
2024-02-15T02:50:25.620Z,42.27
2024-02-15T02:51:25.590Z,42.29
2024-02-15T02:52:25.647Z,42.28
2024-02-15T02:53:25.720Z,42.27
2024-02-15T02:54:25.770Z,42.27
2024-02-15T02:55:25.844Z,42.29
2024-02-15T02:56:25.881Z,42.30
2024-02-15T02:57:25.956Z,42.29
2024-02-15T02:58:26.008Z,42.30
2024-02-15T02:59:26.064Z,42.26
2024-02-15T03:00:26.102Z,42.29
2024-02-15T03:01:26.220Z,42.30
2024-02-15T03:02:26.250Z,42.28
2024-02-15T03:03:26.312Z,42.28
2024-02-15T03:04:26.465Z,42.27
2024-02-15T03:05:26.454Z,42.29
2024-02-15T03:06:26.616Z,42.29
2024-02-15T03:07:26.554Z,42.29
2024-02-15T03:08:26.627Z,42.28
2024-02-15T03:09:26.669Z,42.29
2024-02-15T03:10:26.732Z,42.31
2024-02-15T03:11:26.792Z,42.32
2024-02-15T03:12:31.881Z,42.29
2024-02-15T03:13:26.862Z,42.31
2024-02-15T03:14:26.860Z,42.30
2024-02-15T03:15:26.864Z,42.31
2024-02-15T03:16:26.848Z,42.30
2024-02-15T03:17:26.903Z,42.29
2024-02-15T03:18:26.953Z,42.30
2024-02-15T03:19:26.894Z,42.30
2024-02-15T03:20:26.858Z,42.28
2024-02-15T03:21:26.933Z,42.29
2024-02-15T03:22:27.021Z,42.32
2024-02-15T03:23:27.056Z,42.31
2024-02-15T03:24:27.110Z,42.31
2024-02-15T03:25:27.374Z,42.31
2024-02-15T03:26:27.244Z,42.31
2024-02-15T03:27:32.332Z,42.30
2024-02-15T03:28:27.299Z,42.33
2024-02-15T03:29:27.303Z,42.30
2024-02-15T03:30:27.366Z,42.32
2024-02-15T03:31:27.314Z,42.29
2024-02-15T03:32:27.329Z,42.30
2024-02-15T03:33:27.458Z,42.33
2024-02-15T03:34:27.612Z,42.31
2024-02-15T03:35:27.342Z,42.31
2024-02-15T03:36:28.347Z,42.29
2024-02-15T03:37:27.458Z,42.31
2024-02-15T03:38:27.530Z,42.30
2024-02-15T03:39:27.604Z,42.30
2024-02-15T03:40:27.709Z,42.31
2024-02-15T03:41:27.726Z,42.30
2024-02-15T03:42:27.790Z,42.29
2024-02-15T03:43:27.848Z,42.31
2024-02-15T03:44:27.921Z,42.29
2024-02-15T03:45:28.346Z,42.31
2024-02-15T03:46:28.032Z,42.30
2024-02-15T03:47:28.130Z,42.30
2024-02-15T03:48:28.234Z,42.31
2024-02-15T03:49:28.285Z,42.30
2024-02-15T03:50:28.316Z,42.30
2024-02-15T03:51:28.355Z,42.29
2024-02-15T03:52:28.409Z,42.30
2024-02-15T03:53:28.482Z,42.29
2024-02-15T03:54:28.533Z,42.32
2024-02-15T03:55:28.608Z,42.30
2024-02-15T03:56:28.652Z,42.32
2024-02-15T03:57:28.722Z,42.30
2024-02-15T03:58:28.776Z,42.32
2024-02-15T03:59:28.864Z,42.31
2024-02-15T04:00:28.924Z,42.32
2024-02-15T04:01:29.024Z,42.31
2024-02-15T04:02:29.030Z,42.29
2024-02-15T04:03:29.122Z,42.31
2024-02-15T04:04:29.231Z,42.30
2024-02-15T04:05:29.294Z,42.32
2024-02-15T04:06:29.335Z,42.29
2024-02-15T04:07:29.369Z,42.31
2024-02-15T04:08:29.417Z,42.31
2024-02-15T04:09:29.487Z,42.31
2024-02-15T04:10:29.540Z,42.32
2024-02-15T04:11:29.629Z,42.31
2024-02-15T04:12:29.681Z,42.32
2024-02-15T04:13:29.754Z,42.33
2024-02-15T04:14:29.805Z,42.32
2024-02-15T04:15:29.877Z,42.32
2024-02-15T04:16:29.962Z,42.31
2024-02-15T04:17:30.040Z,42.34
2024-02-15T04:18:30.169Z,42.33
2024-02-15T04:19:30.203Z,42.32
2024-02-15T04:20:30.287Z,42.32
2024-02-15T04:21:30.287Z,42.30
2024-02-15T04:22:30.354Z,42.31
2024-02-15T04:23:30.449Z,42.32
2024-02-15T04:24:30.479Z,42.30
2024-02-15T04:25:30.547Z,42.33
2024-02-15T04:26:30.653Z,42.32
2024-02-15T04:27:30.679Z,42.30
2024-02-15T04:28:30.743Z,42.32
2024-02-15T04:29:30.860Z,42.31
2024-02-15T04:30:30.886Z,42.34
2024-02-15T04:31:31.007Z,42.29
2024-02-15T04:32:31.073Z,42.31
2024-02-15T04:33:31.164Z,42.31
2024-02-15T04:34:31.222Z,42.33
2024-02-15T04:35:31.228Z,42.32
2024-02-15T04:36:31.273Z,42.30
2024-02-15T04:37:31.341Z,42.33
2024-02-15T04:38:31.432Z,42.31
2024-02-15T04:39:31.466Z,42.30
2024-02-15T04:40:31.511Z,42.30
2024-02-15T04:41:31.607Z,42.32
2024-02-15T04:42:31.646Z,42.32
2024-02-15T04:43:31.698Z,42.30
2024-02-15T04:44:31.778Z,42.30
2024-02-15T04:45:31.954Z,42.31
2024-02-15T04:46:31.923Z,42.29
2024-02-15T04:47:32.005Z,42.31
2024-02-15T04:48:32.100Z,42.31
2024-02-15T04:49:32.127Z,42.31
2024-02-15T04:50:32.168Z,42.32
2024-02-15T04:51:32.184Z,42.33
2024-02-15T04:52:32.266Z,42.34
2024-02-15T04:53:32.342Z,42.34
2024-02-15T04:54:32.388Z,42.34
2024-02-15T04:55:32.609Z,42.34
2024-02-15T04:56:32.525Z,42.32
2024-02-15T04:57:32.586Z,42.33
2024-02-15T04:58:42.564Z,42.33
2024-02-15T04:59:32.688Z,42.38
2024-02-15T05:00:32.703Z,42.35
2024-02-15T05:01:32.675Z,42.34
2024-02-15T05:02:32.698Z,42.33
2024-02-15T05:03:32.718Z,42.33
2024-02-15T05:04:32.661Z,42.32
2024-02-15T05:05:32.745Z,42.35
2024-02-15T05:06:32.685Z,42.31
2024-02-15T05:07:32.667Z,42.34
2024-02-15T05:08:32.707Z,42.33
2024-02-15T05:09:32.678Z,42.35
2024-02-15T05:10:32.666Z,42.35
2024-02-15T05:11:32.721Z,42.35
2024-02-15T05:12:32.693Z,42.33
2024-02-15T05:13:40.088Z,42.45
2024-02-15T05:14:40.756Z,42.42
2024-02-15T05:15:40.078Z,42.38
2024-02-15T05:16:40.086Z,42.36
2024-02-15T05:17:40.168Z,42.34
2024-02-15T05:18:40.233Z,42.35
2024-02-15T05:19:40.155Z,42.34
2024-02-15T05:20:40.119Z,42.34
2024-02-15T05:21:40.121Z,42.35
2024-02-15T05:22:40.114Z,42.32
2024-02-15T05:23:40.116Z,42.36
2024-02-15T05:24:40.108Z,42.36
2024-02-15T05:25:40.103Z,42.35
2024-02-15T05:26:40.113Z,42.34
2024-02-15T05:27:40.113Z,42.33
2024-02-15T05:28:40.127Z,42.32
2024-02-15T05:29:40.128Z,42.32
2024-02-15T05:30:40.128Z,42.32
2024-02-15T05:31:40.141Z,42.31
2024-02-15T05:32:40.226Z,42.30
2024-02-15T05:33:40.256Z,42.33
2024-02-15T05:34:40.195Z,42.33
2024-02-15T05:35:40.161Z,42.31
2024-02-15T05:36:40.140Z,42.32
2024-02-15T05:37:40.117Z,42.33
2024-02-15T05:38:40.149Z,42.30
2024-02-15T05:39:40.138Z,42.32
2024-02-15T05:40:40.195Z,42.30
2024-02-15T05:41:40.295Z,42.33
2024-02-15T05:42:40.371Z,42.31
2024-02-15T05:43:40.411Z,42.31
2024-02-15T05:44:40.483Z,42.33
2024-02-15T05:45:40.555Z,42.31
2024-02-15T05:46:40.625Z,42.30
2024-02-15T05:47:40.843Z,42.31
2024-02-15T05:48:40.899Z,42.30
2024-02-15T05:49:40.906Z,42.30
2024-02-15T05:50:40.935Z,42.33
2024-02-15T05:51:42.112Z,42.31
2024-02-15T05:52:41.076Z,42.30
2024-02-15T05:53:41.159Z,42.32
2024-02-15T05:54:41.191Z,42.32
2024-02-15T05:55:41.251Z,42.33
2024-02-15T05:56:41.399Z,42.33
2024-02-15T05:57:41.394Z,42.32
2024-02-15T05:58:41.473Z,42.31
2024-02-15T05:59:41.596Z,42.31
2024-02-15T06:00:41.682Z,42.29
2024-02-15T06:01:41.689Z,42.30
2024-02-15T06:02:41.788Z,42.30
2024-02-15T06:03:42.184Z,42.30
2024-02-15T06:04:41.982Z,42.31
2024-02-15T06:05:42.158Z,42.30
2024-02-15T06:06:42.171Z,42.31
2024-02-15T06:07:42.363Z,42.32
2024-02-15T06:08:42.250Z,42.29
2024-02-15T06:09:42.288Z,42.29
2024-02-15T06:10:42.342Z,42.31
2024-02-15T06:11:42.433Z,42.32
2024-02-15T06:12:42.502Z,42.32
2024-02-15T06:13:42.559Z,42.30
2024-02-15T06:14:42.724Z,42.29
2024-02-15T06:15:42.673Z,42.31
2024-02-15T06:16:42.747Z,42.30
2024-02-15T06:17:42.860Z,42.32
2024-02-15T06:18:43.059Z,42.30
2024-02-15T06:19:42.977Z,42.29
2024-02-15T06:20:43.094Z,42.29
2024-02-15T06:21:43.107Z,42.32
2024-02-15T06:22:43.211Z,42.30
2024-02-15T06:23:43.288Z,42.31
2024-02-15T06:24:43.295Z,42.29
2024-02-15T06:25:43.361Z,42.28
2024-02-15T06:26:44.788Z,42.31
2024-02-15T06:27:43.562Z,42.31
2024-02-15T06:28:43.594Z,42.29
2024-02-15T06:29:43.691Z,42.29
2024-02-15T06:30:43.722Z,42.30
2024-02-15T06:31:43.788Z,42.32
2024-02-15T06:32:43.960Z,42.30
2024-02-15T06:33:47.455Z,42.29
2024-02-15T06:34:43.989Z,42.31
2024-02-15T06:35:44.031Z,42.30
2024-02-15T06:36:43.948Z,42.32
2024-02-15T06:37:43.942Z,42.31
2024-02-15T06:38:43.976Z,42.28
2024-02-15T06:39:44.517Z,42.29
2024-02-15T06:40:43.957Z,42.29
2024-02-15T06:41:43.972Z,42.31
2024-02-15T06:42:43.945Z,42.29
2024-02-15T06:43:43.944Z,42.29
2024-02-15T06:44:44.000Z,42.30
2024-02-15T06:45:43.959Z,42.27
2024-02-15T06:46:43.953Z,42.30
2024-02-15T06:47:44.011Z,42.29
2024-02-15T06:48:44.044Z,42.29
2024-02-15T06:49:43.988Z,42.28
2024-02-15T06:50:43.993Z,42.29
2024-02-15T06:51:46.169Z,42.29
2024-02-15T06:52:43.961Z,42.28
2024-02-15T06:53:44.023Z,42.28
2024-02-15T06:54:44.076Z,42.29
2024-02-15T06:55:43.983Z,42.27
2024-02-15T06:56:44.023Z,42.29
2024-02-15T06:57:43.981Z,42.26
2024-02-15T06:58:43.972Z,42.29
2024-02-15T06:59:44.013Z,42.27
2024-02-15T07:00:44.005Z,42.27
2024-02-15T07:01:43.987Z,42.25
2024-02-15T07:02:44.026Z,42.24
2024-02-15T07:03:44.016Z,42.27
2024-02-15T07:04:44.030Z,42.29
2024-02-15T07:05:44.114Z,42.27
2024-02-15T07:06:44.052Z,42.27
2024-02-15T07:07:44.073Z,42.26
2024-02-15T07:08:44.034Z,42.25
2024-02-15T07:09:44.016Z,42.25
2024-02-15T07:10:43.996Z,42.27
2024-02-15T07:11:44.020Z,42.28
2024-02-15T07:12:44.006Z,42.26
2024-02-15T07:13:43.998Z,42.26
2024-02-15T07:14:44.108Z,42.28
2024-02-15T07:15:44.074Z,42.25
2024-02-15T07:16:44.015Z,42.27
2024-02-15T07:17:44.074Z,42.29
2024-02-15T07:18:44.152Z,42.25
2024-02-15T07:19:44.128Z,42.25
2024-02-15T07:20:44.222Z,42.25
2024-02-15T07:21:44.216Z,42.25
2024-02-15T07:22:44.301Z,42.26
2024-02-15T07:23:44.414Z,42.25
2024-02-15T07:24:44.456Z,42.24
2024-02-15T07:25:44.523Z,42.25
2024-02-15T07:26:44.621Z,42.25
2024-02-15T07:27:44.681Z,42.24
2024-02-15T07:28:44.759Z,42.25
2024-02-15T07:29:44.838Z,42.25
2024-02-15T07:30:44.894Z,42.23
2024-02-15T07:31:44.976Z,42.25
2024-02-15T07:32:45.117Z,42.24
2024-02-15T07:33:45.242Z,42.23
2024-02-15T07:34:45.258Z,42.23
2024-02-15T07:35:45.330Z,42.23
2024-02-15T07:36:45.345Z,42.23
2024-02-15T07:37:45.417Z,42.22
2024-02-15T07:38:45.525Z,42.24
2024-02-15T07:39:45.585Z,42.23
2024-02-15T07:40:45.648Z,42.25
2024-02-15T07:41:45.719Z,42.23
2024-02-15T07:42:45.803Z,42.22
2024-02-15T07:43:45.904Z,42.23
2024-02-15T07:44:45.956Z,42.23
2024-02-15T07:45:46.017Z,42.22
2024-02-15T07:46:46.066Z,42.21
2024-02-15T07:47:46.251Z,42.22
2024-02-15T07:48:46.321Z,42.22
2024-02-15T07:49:46.473Z,42.21
2024-02-15T07:50:46.473Z,42.23
2024-02-15T07:51:46.432Z,42.22
2024-02-15T07:52:46.510Z,42.23
2024-02-15T07:53:46.743Z,42.20
2024-02-15T07:54:46.637Z,42.23
2024-02-15T07:55:46.702Z,42.24
2024-02-15T07:56:46.810Z,42.23
2024-02-15T07:57:46.826Z,42.22
2024-02-15T07:58:49.747Z,42.24
2024-02-15T07:59:46.973Z,42.24
2024-02-15T08:00:46.979Z,42.21
2024-02-15T08:01:46.906Z,42.22
2024-02-15T08:02:46.933Z,42.23
2024-02-15T08:03:46.975Z,42.22
2024-02-15T08:04:47.063Z,42.23
2024-02-15T08:05:47.105Z,42.22
2024-02-15T08:06:47.024Z,42.21
2024-02-15T08:07:46.917Z,42.21
2024-02-15T08:08:49.941Z,42.22
2024-02-15T08:09:46.919Z,42.20
2024-02-15T08:10:46.927Z,42.22
2024-02-15T08:11:46.948Z,42.19
2024-02-15T08:12:46.924Z,42.19
2024-02-15T08:13:47.043Z,42.21
2024-02-15T08:14:46.950Z,42.20
2024-02-15T08:15:46.914Z,42.19
2024-02-15T08:16:46.931Z,42.18
2024-02-15T08:17:46.960Z,42.19
2024-02-15T08:18:47.156Z,42.18
2024-02-15T08:19:47.555Z,42.19
2024-02-15T08:20:46.952Z,42.18
2024-02-15T08:21:47.020Z,42.20
2024-02-15T08:22:46.933Z,42.20
2024-02-15T08:23:47.047Z,42.17
2024-02-15T08:24:46.941Z,42.18
2024-02-15T08:25:46.940Z,42.17
2024-02-15T08:26:46.966Z,42.17
2024-02-15T08:27:46.976Z,42.20
2024-02-15T08:28:46.985Z,42.17
2024-02-15T08:29:46.982Z,42.19
2024-02-15T08:30:46.950Z,42.17
2024-02-15T08:31:46.952Z,42.17
2024-02-15T08:32:47.053Z,42.16
2024-02-15T08:34:08.048Z,42.16
2024-02-15T08:34:47.069Z,42.29
2024-02-15T08:35:47.196Z,42.22
2024-02-15T08:36:47.017Z,42.20
2024-02-15T08:37:46.952Z,42.20
2024-02-15T08:38:46.981Z,42.18
2024-02-15T08:39:46.965Z,42.16
2024-02-15T08:40:46.964Z,42.16
2024-02-15T08:41:46.999Z,42.18
2024-02-15T08:42:46.984Z,42.13
2024-02-15T08:43:46.993Z,42.15
2024-02-15T08:44:47.034Z,42.15
2024-02-15T08:45:46.975Z,42.14
2024-02-15T08:46:48.972Z,42.15
2024-02-15T08:47:46.998Z,42.16
2024-02-15T08:48:47.138Z,42.14
2024-02-15T08:49:47.125Z,42.15
2024-02-15T08:50:47.365Z,42.15
2024-02-15T08:51:47.129Z,42.14
2024-02-15T08:52:47.051Z,42.16
2024-02-15T08:53:47.079Z,42.12
2024-02-15T08:54:46.993Z,42.14
2024-02-15T08:55:47.007Z,42.13
2024-02-15T08:56:47.067Z,42.12
2024-02-15T08:57:47.030Z,42.14
2024-02-15T08:58:47.058Z,42.12
2024-02-15T08:59:47.073Z,42.13
2024-02-15T09:00:47.045Z,42.15
2024-02-15T09:01:48.028Z,42.14
2024-02-15T09:02:47.060Z,42.12
2024-02-15T09:03:47.229Z,42.14
2024-02-15T09:04:47.102Z,42.14
2024-02-15T09:05:47.315Z,42.15
2024-02-15T09:06:47.061Z,42.14
2024-02-15T09:07:47.027Z,42.14
2024-02-15T09:08:47.113Z,42.14
2024-02-15T09:09:47.033Z,42.14
2024-02-15T09:10:47.016Z,42.13
2024-02-15T09:11:48.072Z,42.12
2024-02-15T09:12:47.033Z,42.13
2024-02-15T09:13:47.047Z,42.14
2024-02-15T09:14:47.088Z,42.14
2024-02-15T09:15:47.037Z,42.15
2024-02-15T09:16:47.035Z,42.13
2024-02-15T09:17:47.969Z,42.15
2024-02-15T09:18:47.518Z,42.15
2024-02-15T09:19:47.076Z,42.14
2024-02-15T09:20:47.098Z,42.14
2024-02-15T09:21:47.169Z,42.15
2024-02-15T09:22:47.294Z,42.13
2024-02-15T09:23:47.458Z,42.14
2024-02-15T09:24:47.381Z,42.11
2024-02-15T09:25:47.468Z,42.12
2024-02-15T09:26:47.559Z,42.14
2024-02-15T09:27:47.855Z,42.13
2024-02-15T09:28:47.691Z,42.15
2024-02-15T09:29:47.774Z,42.13
2024-02-15T09:30:47.816Z,42.13
2024-02-15T09:31:47.898Z,42.15
2024-02-15T09:32:48.022Z,42.14
2024-02-15T09:33:48.174Z,42.12
2024-02-15T09:34:48.148Z,42.14
2024-02-15T09:35:48.234Z,42.15
2024-02-15T09:36:48.255Z,42.15
2024-02-15T09:37:48.328Z,42.14
2024-02-15T09:38:48.414Z,42.16
2024-02-15T09:39:48.506Z,42.13
2024-02-15T09:40:48.532Z,42.15
2024-02-15T09:41:48.638Z,42.14
2024-02-15T09:42:48.816Z,42.15
2024-02-15T09:43:48.746Z,42.15
2024-02-15T09:44:48.851Z,42.14
2024-02-15T09:45:48.883Z,42.14
2024-02-15T09:46:48.959Z,42.13
2024-02-15T09:47:49.198Z,42.16
2024-02-15T09:48:49.173Z,42.15
2024-02-15T09:49:49.257Z,42.16
2024-02-15T09:50:49.281Z,42.15
2024-02-15T09:51:49.326Z,42.12
2024-02-15T09:52:56.741Z,42.25
2024-02-15T09:53:56.810Z,42.19
2024-02-15T09:54:56.745Z,42.17
2024-02-15T09:55:56.730Z,42.17
2024-02-15T09:56:56.766Z,42.17
2024-02-15T09:57:56.735Z,42.16
2024-02-15T09:58:56.744Z,42.19
2024-02-15T09:59:56.773Z,42.15
2024-02-15T10:00:57.358Z,42.14
2024-02-15T10:01:56.757Z,42.15
2024-02-15T10:02:56.777Z,42.17
2024-02-15T10:03:56.797Z,42.14
2024-02-15T10:04:56.831Z,42.16
2024-02-15T10:05:57.032Z,42.14
2024-02-15T10:06:57.133Z,42.16
2024-02-15T10:07:57.012Z,42.13
2024-02-15T10:08:57.088Z,42.16
2024-02-15T10:10:00.420Z,42.14
2024-02-15T10:10:58.153Z,42.15
2024-02-15T10:11:57.157Z,42.16
2024-02-15T10:12:57.188Z,42.13
2024-02-15T10:14:07.239Z,42.14
2024-02-15T10:14:57.189Z,42.21
2024-02-15T10:15:57.144Z,42.15
2024-02-15T10:16:57.149Z,42.19
2024-02-15T10:17:57.242Z,42.16
2024-02-15T10:18:57.191Z,42.15
2024-02-15T10:19:57.205Z,42.15
2024-02-15T10:20:57.170Z,42.14
2024-02-15T10:21:57.164Z,42.17
2024-02-15T10:22:57.164Z,42.15
2024-02-15T10:23:57.185Z,42.14
2024-02-15T10:24:57.167Z,42.16
2024-02-15T10:25:57.162Z,42.15
2024-02-15T10:26:57.231Z,42.15
2024-02-15T10:27:57.174Z,42.16
2024-02-15T10:28:57.162Z,42.16
2024-02-15T10:29:57.218Z,42.16
2024-02-15T10:30:57.170Z,42.19
2024-02-15T10:31:57.183Z,42.16
2024-02-15T10:32:58.379Z,42.16
2024-02-15T10:33:57.327Z,42.17
2024-02-15T10:34:57.223Z,42.16
2024-02-15T10:35:57.280Z,42.18
2024-02-15T10:36:57.339Z,42.16
2024-02-15T10:37:57.436Z,42.17
2024-02-15T10:38:57.555Z,42.18
2024-02-15T10:39:57.570Z,42.16
2024-02-15T10:40:57.635Z,42.15
2024-02-15T10:41:57.798Z,42.18
2024-02-15T10:42:57.917Z,42.17
2024-02-15T10:43:57.876Z,42.18
2024-02-15T10:44:57.980Z,42.17
2024-02-15T10:45:59.035Z,42.17
2024-02-15T10:46:58.097Z,42.19
2024-02-15T10:47:58.314Z,42.15
2024-02-15T10:48:58.350Z,42.17
2024-02-15T10:49:58.395Z,42.16
2024-02-15T10:50:58.415Z,42.17
2024-02-15T10:51:58.465Z,42.17
2024-02-15T10:52:58.578Z,42.18
2024-02-15T10:54:13.458Z,42.18
2024-02-15T10:54:58.612Z,42.25
2024-02-15T10:55:58.644Z,42.22
2024-02-15T10:56:58.666Z,42.19
2024-02-15T10:57:58.677Z,42.22
2024-02-15T10:58:58.619Z,42.16
2024-02-15T10:59:58.964Z,42.19
2024-02-15T11:00:58.667Z,42.17
2024-02-15T11:01:58.669Z,42.19
2024-02-15T11:02:58.658Z,42.18
2024-02-15T11:03:58.649Z,42.17
2024-02-15T11:04:58.625Z,42.18
2024-02-15T11:05:58.706Z,42.19
2024-02-15T11:06:58.741Z,42.17
2024-02-15T11:07:58.775Z,42.19
2024-02-15T11:08:58.675Z,42.20
2024-02-15T11:09:58.660Z,42.16
2024-02-15T11:10:58.654Z,42.16
2024-02-15T11:11:58.655Z,42.19
2024-02-15T11:12:58.670Z,42.18
2024-02-15T11:13:58.655Z,42.17
2024-02-15T11:14:58.672Z,42.17
2024-02-15T11:15:58.666Z,42.19
2024-02-15T11:16:58.732Z,42.21
2024-02-15T11:17:58.791Z,42.19
2024-02-15T11:18:58.749Z,42.20
2024-02-15T11:19:58.699Z,42.19
2024-02-15T11:20:58.824Z,42.16
2024-02-15T11:21:58.794Z,42.20
2024-02-15T11:22:58.672Z,42.16
2024-02-15T11:23:59.431Z,42.16
2024-02-15T11:24:59.145Z,42.16
2024-02-15T11:25:58.679Z,42.17
2024-02-15T11:26:58.709Z,42.17
2024-02-15T11:27:58.752Z,42.17
2024-02-15T11:28:58.816Z,42.18
2024-02-15T11:29:58.909Z,42.19
2024-02-15T11:30:58.966Z,42.19
2024-02-15T11:31:59.040Z,42.19
2024-02-15T11:32:59.184Z,42.17
2024-02-15T11:33:59.298Z,42.17
2024-02-15T11:34:59.321Z,42.17
2024-02-15T11:35:59.366Z,42.18
2024-02-15T11:36:59.430Z,42.18
2024-02-15T11:37:59.822Z,42.18
2024-02-15T11:38:59.582Z,42.17
2024-02-15T11:39:59.642Z,42.18
2024-02-15T11:40:59.721Z,42.18
2024-02-15T11:41:59.821Z,42.16
2024-02-15T11:42:59.871Z,42.17
2024-02-15T11:44:00.427Z,42.18
2024-02-15T11:45:00.116Z,42.16
2024-02-15T11:46:00.154Z,42.18
2024-02-15T11:47:00.152Z,42.15
2024-02-15T11:48:00.291Z,42.17
2024-02-15T11:49:00.638Z,42.19
2024-02-15T11:50:00.456Z,42.19
2024-02-15T11:51:01.166Z,42.19
2024-02-15T11:52:00.548Z,42.18
2024-02-15T11:53:00.613Z,42.17
2024-02-15T11:54:00.763Z,42.17
2024-02-15T11:55:00.755Z,42.16
2024-02-15T11:56:00.835Z,42.19
2024-02-15T11:57:00.952Z,42.17
2024-02-15T11:58:00.992Z,42.18
2024-02-15T11:59:01.053Z,42.19
2024-02-15T12:00:01.149Z,42.18
2024-02-15T12:01:01.217Z,42.18
2024-02-15T12:02:01.271Z,42.18
2024-02-15T12:03:01.380Z,42.18
2024-02-15T12:04:07.057Z,42.19
2024-02-15T12:05:02.497Z,42.18
2024-02-15T12:06:01.644Z,42.19
2024-02-15T12:07:01.513Z,42.19
2024-02-15T12:08:01.420Z,42.16
2024-02-15T12:09:01.486Z,42.17
2024-02-15T12:10:03.093Z,42.16
2024-02-15T12:11:01.482Z,42.18
2024-02-15T12:12:01.513Z,42.18
2024-02-15T12:13:01.451Z,42.16
2024-02-15T12:14:01.442Z,42.16
2024-02-15T12:15:01.482Z,42.17
2024-02-15T12:16:01.443Z,42.15
2024-02-15T12:17:01.438Z,42.18
2024-02-15T12:18:01.508Z,42.15
2024-02-15T12:19:01.584Z,42.16
2024-02-15T12:20:01.439Z,42.17
2024-02-15T12:21:01.492Z,42.14
2024-02-15T12:22:22.457Z,42.15
2024-02-15T12:23:01.457Z,42.28
2024-02-15T12:24:01.471Z,42.20
2024-02-15T12:25:01.537Z,42.19
2024-02-15T12:26:01.464Z,42.17
2024-02-15T12:27:06.509Z,42.18
2024-02-15T12:28:01.457Z,42.20
2024-02-15T12:29:01.455Z,42.18
2024-02-15T12:30:01.480Z,42.19
2024-02-15T12:31:01.479Z,42.13
2024-02-15T12:32:01.469Z,42.16
2024-02-15T12:33:01.594Z,42.16
2024-02-15T12:34:01.658Z,42.16
2024-02-15T12:35:01.696Z,42.16
2024-02-15T12:36:01.810Z,42.13
2024-02-15T12:37:01.812Z,42.16
2024-02-15T12:38:01.913Z,42.16
2024-02-15T12:39:06.868Z,42.13
2024-02-15T12:40:01.970Z,42.16
2024-02-15T12:41:01.979Z,42.14
2024-02-15T12:42:02.001Z,42.16
2024-02-15T12:43:01.977Z,42.14
2024-02-15T12:44:02.005Z,42.14
2024-02-15T12:45:02.090Z,42.16
2024-02-15T12:46:01.986Z,42.15
2024-02-15T12:47:01.991Z,42.15
2024-02-15T12:48:02.080Z,42.13
2024-02-15T12:49:02.250Z,42.11
2024-02-15T12:50:02.290Z,42.12
2024-02-15T12:51:02.251Z,42.11
2024-02-15T12:52:02.310Z,42.14
2024-02-15T12:53:06.820Z,42.12